sensor_id;sensor_type;location;lat;lon;timestamp;P1;durP1;ratioP1;P2;durP2;ratioP2
43337;SDS011;28933;52.492;13.434;2022-09-06T00:01:06;2.50;;;1.50;;
43337;SDS011;28933;52.492;13.434;2022-09-06T00:03:33;3.67;;;2.10;;
43337;SDS011;28933;52.492;13.434;2022-09-06T00:06:03;3.80;;;1.60;;
43337;SDS011;28933;52.492;13.434;2022-09-06T00:08:33;5.38;;;1.70;;
43337;SDS011;28933;52.492;13.434;2022-09-06T00:10:58;3.70;;;1.65;;
43337;SDS011;28933;52.492;13.434;2022-09-06T00:13:24;4.63;;;2.25;;
43337;SDS011;28933;52.492;13.434;2022-09-06T00:15:50;3.55;;;1.55;;
43337;SDS011;28933;52.492;13.434;2022-09-06T00:18:15;2.10;;;1.75;;
43337;SDS011;28933;52.492;13.434;2022-09-06T00:20:41;2.00;;;1.30;;
43337;SDS011;28933;52.492;13.434;2022-09-06T00:23:07;2.42;;;1.52;;
43337;SDS011;28933;52.492;13.434;2022-09-06T00:25:33;2.53;;;1.45;;
43337;SDS011;28933;52.492;13.434;2022-09-06T00:27:59;2.13;;;1.60;;
43337;SDS011;28933;52.492;13.434;2022-09-06T00:30:27;4.07;;;1.38;;
43337;SDS011;28933;52.492;13.434;2022-09-06T00:32:54;3.58;;;1.40;;
43337;SDS011;28933;52.492;13.434;2022-09-06T00:35:21;2.75;;;1.45;;
43337;SDS011;28933;52.492;13.434;2022-09-06T00:37:55;3.67;;;1.70;;
43337;SDS011;28933;52.492;13.434;2022-09-06T00:40:25;2.30;;;1.27;;
43337;SDS011;28933;52.492;13.434;2022-09-06T00:42:53;1.85;;;1.50;;
43337;SDS011;28933;52.492;13.434;2022-09-06T00:45:20;2.85;;;1.60;;
43337;SDS011;28933;52.492;13.434;2022-09-06T00:47:46;3.47;;;1.50;;
43337;SDS011;28933;52.492;13.434;2022-09-06T00:50:13;4.40;;;1.58;;
43337;SDS011;28933;52.492;13.434;2022-09-06T00:52:42;2.47;;;1.40;;
43337;SDS011;28933;52.492;13.434;2022-09-06T00:55:10;5.18;;;1.45;;
43337;SDS011;28933;52.492;13.434;2022-09-06T00:57:37;3.08;;;1.40;;
43337;SDS011;28933;52.492;13.434;2022-09-06T01:00:04;2.10;;;1.40;;
43337;SDS011;28933;52.492;13.434;2022-09-06T01:02:31;4.20;;;1.60;;
43337;SDS011;28933;52.492;13.434;2022-09-06T01:04:56;2.83;;;1.40;;
43337;SDS011;28933;52.492;13.434;2022-09-06T01:07:33;1.88;;;1.30;;
43337;SDS011;28933;52.492;13.434;2022-09-06T01:10:16;2.50;;;1.25;;
43337;SDS011;28933;52.492;13.434;2022-09-06T01:21:17;1.88;;;1.23;;
43337;SDS011;28933;52.492;13.434;2022-09-06T01:29:45;3.20;;;1.40;;
43337;SDS011;28933;52.492;13.434;2022-09-06T01:35:12;10.25;;;1.58;;
43337;SDS011;28933;52.492;13.434;2022-09-06T01:37:44;2.08;;;1.05;;
43337;SDS011;28933;52.492;13.434;2022-09-06T01:40:11;4.57;;;1.65;;
43337;SDS011;28933;52.492;13.434;2022-09-06T01:42:37;2.22;;;1.40;;
43337;SDS011;28933;52.492;13.434;2022-09-06T01:45:06;1.92;;;1.38;;
43337;SDS011;28933;52.492;13.434;2022-09-06T02:02:58;4.20;;;1.50;;
43337;SDS011;28933;52.492;13.434;2022-09-06T02:04:58;2.95;;;1.50;;
43337;SDS011;28933;52.492;13.434;2022-09-06T02:07:33;2.70;;;1.50;;
43337;SDS011;28933;52.492;13.434;2022-09-06T02:10:06;2.88;;;1.40;;
43337;SDS011;28933;52.492;13.434;2022-09-06T02:12:38;2.05;;;1.20;;
43337;SDS011;28933;52.492;13.434;2022-09-06T02:15:10;2.20;;;1.65;;
43337;SDS011;28933;52.492;13.434;2022-09-06T02:17:49;2.90;;;1.52;;
43337;SDS011;28933;52.492;13.434;2022-09-06T02:20:25;3.40;;;1.40;;
43337;SDS011;28933;52.492;13.434;2022-09-06T02:22:56;3.22;;;1.42;;
43337;SDS011;28933;52.492;13.434;2022-09-06T02:25:31;1.63;;;1.15;;
43337;SDS011;28933;52.492;13.434;2022-09-06T02:28:04;3.72;;;1.50;;
43337;SDS011;28933;52.492;13.434;2022-09-06T02:30:33;2.78;;;1.38;;
43337;SDS011;28933;52.492;13.434;2022-09-06T02:33:05;3.13;;;1.25;;
43337;SDS011;28933;52.492;13.434;2022-09-06T02:35:47;1.80;;;1.20;;
43337;SDS011;28933;52.492;13.434;2022-09-06T02:38:15;3.50;;;1.60;;
43337;SDS011;28933;52.492;13.434;2022-09-06T02:40:41;3.67;;;1.80;;
43337;SDS011;28933;52.492;13.434;2022-09-06T02:43:08;1.92;;;1.35;;
43337;SDS011;28933;52.492;13.434;2022-09-06T02:45:34;2.03;;;1.35;;
43337;SDS011;28933;52.492;13.434;2022-09-06T02:48:00;2.13;;;1.42;;
43337;SDS011;28933;52.492;13.434;2022-09-06T02:50:25;2.15;;;1.30;;
43337;SDS011;28933;52.492;13.434;2022-09-06T02:53:12;2.75;;;1.60;;
43337;SDS011;28933;52.492;13.434;2022-09-06T02:55:38;2.92;;;1.48;;
43337;SDS011;28933;52.492;13.434;2022-09-06T02:58:08;3.13;;;1.40;;
43337;SDS011;28933;52.492;13.434;2022-09-06T03:00:35;3.88;;;1.35;;
43337;SDS011;28933;52.492;13.434;2022-09-06T03:03:01;4.30;;;1.40;;
43337;SDS011;28933;52.492;13.434;2022-09-06T03:05:27;6.13;;;1.40;;
43337;SDS011;28933;52.492;13.434;2022-09-06T03:07:53;1.48;;;1.10;;
43337;SDS011;28933;52.492;13.434;2022-09-06T03:10:20;3.72;;;1.95;;
43337;SDS011;28933;52.492;13.434;2022-09-06T03:12:46;3.15;;;1.45;;
43337;SDS011;28933;52.492;13.434;2022-09-06T03:15:12;2.10;;;1.38;;
43337;SDS011;28933;52.492;13.434;2022-09-06T03:17:40;2.30;;;1.45;;
43337;SDS011;28933;52.492;13.434;2022-09-06T03:20:06;2.63;;;1.60;;
43337;SDS011;28933;52.492;13.434;2022-09-06T03:22:34;2.05;;;1.42;;
43337;SDS011;28933;52.492;13.434;2022-09-06T03:25:01;3.38;;;1.40;;
43337;SDS011;28933;52.492;13.434;2022-09-06T03:27:27;1.83;;;1.38;;
43337;SDS011;28933;52.492;13.434;2022-09-06T03:29:53;2.30;;;1.50;;
43337;SDS011;28933;52.492;13.434;2022-09-06T03:32:18;2.33;;;1.40;;
43337;SDS011;28933;52.492;13.434;2022-09-06T03:34:44;3.10;;;1.50;;
43337;SDS011;28933;52.492;13.434;2022-09-06T03:37:09;4.82;;;1.58;;
43337;SDS011;28933;52.492;13.434;2022-09-06T03:39:35;2.17;;;1.45;;
43337;SDS011;28933;52.492;13.434;2022-09-06T03:42:01;2.45;;;1.75;;
43337;SDS011;28933;52.492;13.434;2022-09-06T03:44:26;3.33;;;1.65;;
43337;SDS011;28933;52.492;13.434;2022-09-06T03:46:52;3.10;;;1.70;;
43337;SDS011;28933;52.492;13.434;2022-09-06T03:49:18;2.42;;;1.50;;
43337;SDS011;28933;52.492;13.434;2022-09-06T03:51:43;2.85;;;1.60;;
43337;SDS011;28933;52.492;13.434;2022-09-06T03:54:09;3.30;;;2.13;;
43337;SDS011;28933;52.492;13.434;2022-09-06T03:56:34;2.65;;;1.52;;
43337;SDS011;28933;52.492;13.434;2022-09-06T03:59:01;2.13;;;1.67;;
43337;SDS011;28933;52.492;13.434;2022-09-06T04:01:27;2.47;;;1.48;;
43337;SDS011;28933;52.492;13.434;2022-09-06T04:03:53;2.35;;;1.40;;
43337;SDS011;28933;52.492;13.434;2022-09-06T04:06:19;2.30;;;1.38;;
43337;SDS011;28933;52.492;13.434;2022-09-06T04:08:45;2.53;;;1.48;;
43337;SDS011;28933;52.492;13.434;2022-09-06T04:11:11;2.85;;;1.30;;
43337;SDS011;28933;52.492;13.434;2022-09-06T04:13:36;2.75;;;1.70;;
43337;SDS011;28933;52.492;13.434;2022-09-06T04:16:03;2.40;;;1.65;;
43337;SDS011;28933;52.492;13.434;2022-09-06T04:18:29;2.30;;;1.88;;
43337;SDS011;28933;52.492;13.434;2022-09-06T04:20:56;2.88;;;1.75;;
43337;SDS011;28933;52.492;13.434;2022-09-06T04:23:22;2.80;;;1.50;;
43337;SDS011;28933;52.492;13.434;2022-09-06T04:25:49;3.03;;;1.58;;
43337;SDS011;28933;52.492;13.434;2022-09-06T04:28:17;3.20;;;1.48;;
43337;SDS011;28933;52.492;13.434;2022-09-06T04:30:44;2.50;;;1.48;;
43337;SDS011;28933;52.492;13.434;2022-09-06T04:33:10;3.58;;;1.75;;
43337;SDS011;28933;52.492;13.434;2022-09-06T04:35:36;2.35;;;1.50;;
43337;SDS011;28933;52.492;13.434;2022-09-06T04:38:02;2.80;;;1.50;;
43337;SDS011;28933;52.492;13.434;2022-09-06T04:40:28;2.47;;;1.50;;
43337;SDS011;28933;52.492;13.434;2022-09-06T04:42:53;3.08;;;1.55;;
43337;SDS011;28933;52.492;13.434;2022-09-06T04:45:19;5.90;;;2.00;;
43337;SDS011;28933;52.492;13.434;2022-09-06T04:47:44;9.30;;;1.90;;
43337;SDS011;28933;52.492;13.434;2022-09-06T04:50:10;2.60;;;1.55;;
43337;SDS011;28933;52.492;13.434;2022-09-06T04:52:36;2.45;;;1.70;;
43337;SDS011;28933;52.492;13.434;2022-09-06T04:55:01;2.83;;;1.73;;
43337;SDS011;28933;52.492;13.434;2022-09-06T04:57:27;4.07;;;1.60;;
43337;SDS011;28933;52.492;13.434;2022-09-06T04:59:53;3.05;;;1.50;;
43337;SDS011;28933;52.492;13.434;2022-09-06T05:02:18;3.20;;;1.70;;
43337;SDS011;28933;52.492;13.434;2022-09-06T05:04:44;4.03;;;1.95;;
43337;SDS011;28933;52.492;13.434;2022-09-06T05:07:09;2.58;;;1.45;;
43337;SDS011;28933;52.492;13.434;2022-09-06T05:09:35;2.58;;;1.70;;
43337;SDS011;28933;52.492;13.434;2022-09-06T05:12:01;4.88;;;1.83;;
43337;SDS011;28933;52.492;13.434;2022-09-06T05:14:27;3.50;;;1.80;;
43337;SDS011;28933;52.492;13.434;2022-09-06T05:16:53;5.68;;;1.70;;
43337;SDS011;28933;52.492;13.434;2022-09-06T05:19:19;2.70;;;1.40;;
43337;SDS011;28933;52.492;13.434;2022-09-06T05:21:44;3.83;;;1.73;;
43337;SDS011;28933;52.492;13.434;2022-09-06T05:24:10;3.35;;;1.63;;
43337;SDS011;28933;52.492;13.434;2022-09-06T05:26:36;3.08;;;1.65;;
43337;SDS011;28933;52.492;13.434;2022-09-06T05:29:01;2.58;;;1.50;;
43337;SDS011;28933;52.492;13.434;2022-09-06T05:31:28;2.20;;;1.60;;
43337;SDS011;28933;52.492;13.434;2022-09-06T05:33:55;5.30;;;1.55;;
43337;SDS011;28933;52.492;13.434;2022-09-06T05:36:22;3.63;;;1.70;;
43337;SDS011;28933;52.492;13.434;2022-09-06T05:38:49;7.03;;;1.77;;
43337;SDS011;28933;52.492;13.434;2022-09-06T05:41:15;3.97;;;1.80;;
43337;SDS011;28933;52.492;13.434;2022-09-06T05:43:41;4.45;;;1.60;;
43337;SDS011;28933;52.492;13.434;2022-09-06T05:46:07;4.00;;;2.00;;
43337;SDS011;28933;52.492;13.434;2022-09-06T05:48:33;3.53;;;1.80;;
43337;SDS011;28933;52.492;13.434;2022-09-06T05:51:00;4.45;;;1.60;;
43337;SDS011;28933;52.492;13.434;2022-09-06T05:53:31;2.95;;;1.60;;
43337;SDS011;28933;52.492;13.434;2022-09-06T05:58:27;3.22;;;1.65;;
43337;SDS011;28933;52.492;13.434;2022-09-06T06:01:02;4.80;;;2.47;;
43337;SDS011;28933;52.492;13.434;2022-09-06T06:03:51;3.03;;;1.75;;
43337;SDS011;28933;52.492;13.434;2022-09-06T06:06:26;3.95;;;1.60;;
43337;SDS011;28933;52.492;13.434;2022-09-06T06:08:54;3.00;;;1.30;;
43337;SDS011;28933;52.492;13.434;2022-09-06T06:11:20;3.15;;;1.80;;
43337;SDS011;28933;52.492;13.434;2022-09-06T06:13:46;3.13;;;1.50;;
43337;SDS011;28933;52.492;13.434;2022-09-06T06:16:13;4.47;;;1.52;;
43337;SDS011;28933;52.492;13.434;2022-09-06T06:18:39;7.50;;;1.80;;
43337;SDS011;28933;52.492;13.434;2022-09-06T06:21:15;4.85;;;1.90;;
43337;SDS011;28933;52.492;13.434;2022-09-06T06:23:48;6.72;;;1.52;;
43337;SDS011;28933;52.492;13.434;2022-09-06T06:26:16;2.97;;;1.45;;
43337;SDS011;28933;52.492;13.434;2022-09-06T06:28:42;2.50;;;1.50;;
43337;SDS011;28933;52.492;13.434;2022-09-06T06:31:08;4.90;;;1.50;;
43337;SDS011;28933;52.492;13.434;2022-09-06T06:33:35;3.33;;;1.90;;
43337;SDS011;28933;52.492;13.434;2022-09-06T06:36:21;4.82;;;2.17;;
43337;SDS011;28933;52.492;13.434;2022-09-06T06:38:48;3.95;;;2.10;;
43337;SDS011;28933;52.492;13.434;2022-09-06T06:41:19;4.15;;;1.75;;
43337;SDS011;28933;52.492;13.434;2022-09-06T06:43:49;3.15;;;1.80;;
43337;SDS011;28933;52.492;13.434;2022-09-06T06:46:19;2.72;;;1.65;;
43337;SDS011;28933;52.492;13.434;2022-09-06T06:48:45;4.65;;;1.70;;
43337;SDS011;28933;52.492;13.434;2022-09-06T06:51:12;4.15;;;1.60;;
43337;SDS011;28933;52.492;13.434;2022-09-06T06:53:40;2.65;;;1.40;;
43337;SDS011;28933;52.492;13.434;2022-09-06T06:56:13;4.80;;;1.80;;
43337;SDS011;28933;52.492;13.434;2022-09-06T06:58:43;3.55;;;1.75;;
43337;SDS011;28933;52.492;13.434;2022-09-06T07:01:10;5.70;;;1.77;;
43337;SDS011;28933;52.492;13.434;2022-09-06T07:03:36;3.10;;;1.70;;
43337;SDS011;28933;52.492;13.434;2022-09-06T07:06:02;2.75;;;1.60;;
43337;SDS011;28933;52.492;13.434;2022-09-06T07:08:28;3.20;;;1.70;;
43337;SDS011;28933;52.492;13.434;2022-09-06T07:10:54;2.22;;;1.52;;
43337;SDS011;28933;52.492;13.434;2022-09-06T07:13:19;3.67;;;2.10;;
43337;SDS011;28933;52.492;13.434;2022-09-06T07:15:45;3.58;;;1.80;;
43337;SDS011;28933;52.492;13.434;2022-09-06T07:18:11;3.22;;;1.80;;
43337;SDS011;28933;52.492;13.434;2022-09-06T07:20:39;2.70;;;1.73;;
43337;SDS011;28933;52.492;13.434;2022-09-06T07:23:05;2.78;;;1.80;;
43337;SDS011;28933;52.492;13.434;2022-09-06T07:25:30;3.17;;;1.55;;
43337;SDS011;28933;52.492;13.434;2022-09-06T07:27:57;2.33;;;1.65;;
43337;SDS011;28933;52.492;13.434;2022-09-06T07:30:31;4.97;;;2.60;;
43337;SDS011;28933;52.492;13.434;2022-09-06T07:33:01;2.75;;;1.80;;
43337;SDS011;28933;52.492;13.434;2022-09-06T07:35:29;3.53;;;2.00;;
43337;SDS011;28933;52.492;13.434;2022-09-06T07:37:56;3.65;;;2.00;;
43337;SDS011;28933;52.492;13.434;2022-09-06T07:40:23;2.85;;;1.88;;
43337;SDS011;28933;52.492;13.434;2022-09-06T07:42:50;4.55;;;1.77;;
43337;SDS011;28933;52.492;13.434;2022-09-06T07:45:16;5.60;;;2.05;;
43337;SDS011;28933;52.492;13.434;2022-09-06T07:47:42;3.75;;;1.77;;
43337;SDS011;28933;52.492;13.434;2022-09-06T07:50:08;6.97;;;1.80;;
43337;SDS011;28933;52.492;13.434;2022-09-06T07:52:34;5.68;;;1.90;;
43337;SDS011;28933;52.492;13.434;2022-09-06T07:54:59;4.07;;;2.05;;
43337;SDS011;28933;52.492;13.434;2022-09-06T07:57:25;6.15;;;2.00;;
43337;SDS011;28933;52.492;13.434;2022-09-06T07:59:51;3.88;;;2.20;;
43337;SDS011;28933;52.492;13.434;2022-09-06T08:02:17;3.70;;;2.17;;
43337;SDS011;28933;52.492;13.434;2022-09-06T08:04:43;6.45;;;2.10;;
43337;SDS011;28933;52.492;13.434;2022-09-06T08:07:09;4.82;;;2.10;;
43337;SDS011;28933;52.492;13.434;2022-09-06T08:09:34;4.20;;;2.65;;
43337;SDS011;28933;52.492;13.434;2022-09-06T08:12:02;4.60;;;2.40;;
43337;SDS011;28933;52.492;13.434;2022-09-06T08:14:31;3.85;;;2.30;;
43337;SDS011;28933;52.492;13.434;2022-09-06T08:16:57;4.72;;;2.35;;
43337;SDS011;28933;52.492;13.434;2022-09-06T08:19:23;3.60;;;2.38;;
43337;SDS011;28933;52.492;13.434;2022-09-06T08:21:48;4.28;;;2.40;;
43337;SDS011;28933;52.492;13.434;2022-09-06T08:24:14;3.38;;;2.50;;
43337;SDS011;28933;52.492;13.434;2022-09-06T08:26:40;2.83;;;1.98;;
43337;SDS011;28933;52.492;13.434;2022-09-06T08:29:10;3.42;;;2.13;;
43337;SDS011;28933;52.492;13.434;2022-09-06T08:31:37;4.22;;;2.40;;
43337;SDS011;28933;52.492;13.434;2022-09-06T08:34:05;3.63;;;2.25;;
43337;SDS011;28933;52.492;13.434;2022-09-06T08:36:31;7.72;;;2.40;;
43337;SDS011;28933;52.492;13.434;2022-09-06T08:38:58;5.10;;;2.67;;
43337;SDS011;28933;52.492;13.434;2022-09-06T08:44:26;8.32;;;2.40;;
43337;SDS011;28933;52.492;13.434;2022-09-06T08:46:57;3.33;;;2.13;;
43337;SDS011;28933;52.492;13.434;2022-09-06T08:49:28;5.15;;;2.65;;
43337;SDS011;28933;52.492;13.434;2022-09-06T09:00:03;3.53;;;2.33;;
43337;SDS011;28933;52.492;13.434;2022-09-06T09:02:45;5.55;;;2.22;;
43337;SDS011;28933;52.492;13.434;2022-09-06T09:05:30;3.92;;;2.65;;
43337;SDS011;28933;52.492;13.434;2022-09-06T09:10:45;3.67;;;1.95;;
43337;SDS011;28933;52.492;13.434;2022-09-06T09:13:34;5.18;;;2.60;;
43337;SDS011;28933;52.492;13.434;2022-09-06T09:16:05;4.22;;;2.80;;
43337;SDS011;28933;52.492;13.434;2022-09-06T09:18:32;7.45;;;3.10;;
43337;SDS011;28933;52.492;13.434;2022-09-06T09:21:01;3.78;;;2.67;;
43337;SDS011;28933;52.492;13.434;2022-09-06T09:23:27;6.15;;;2.40;;
43337;SDS011;28933;52.492;13.434;2022-09-06T09:25:55;4.32;;;2.58;;
43337;SDS011;28933;52.492;13.434;2022-09-06T09:28:25;8.43;;;2.53;;
43337;SDS011;28933;52.492;13.434;2022-09-06T09:30:52;6.22;;;2.92;;
43337;SDS011;28933;52.492;13.434;2022-09-06T09:33:20;4.70;;;2.58;;
43337;SDS011;28933;52.492;13.434;2022-09-06T09:35:47;5.32;;;2.70;;
43337;SDS011;28933;52.492;13.434;2022-09-06T09:38:17;5.18;;;2.45;;
43337;SDS011;28933;52.492;13.434;2022-09-06T09:41:01;3.72;;;2.00;;
43337;SDS011;28933;52.492;13.434;2022-09-06T09:43:39;5.63;;;2.30;;
43337;SDS011;28933;52.492;13.434;2022-09-06T09:49:10;5.05;;;2.53;;
43337;SDS011;28933;52.492;13.434;2022-09-06T09:51:45;3.58;;;2.30;;
43337;SDS011;28933;52.492;13.434;2022-09-06T09:54:30;8.77;;;2.20;;
43337;SDS011;28933;52.492;13.434;2022-09-06T09:56:56;7.35;;;2.60;;
43337;SDS011;28933;52.492;13.434;2022-09-06T10:05:01;4.50;;;2.50;;
43337;SDS011;28933;52.492;13.434;2022-09-06T10:07:29;9.10;;;3.28;;
43337;SDS011;28933;52.492;13.434;2022-09-06T10:10:00;4.30;;;2.60;;
43337;SDS011;28933;52.492;13.434;2022-09-06T10:12:31;6.20;;;2.97;;
43337;SDS011;28933;52.492;13.434;2022-09-06T10:15:04;4.45;;;3.10;;
43337;SDS011;28933;52.492;13.434;2022-09-06T10:20:00;6.78;;;2.92;;
43337;SDS011;28933;52.492;13.434;2022-09-06T10:28:27;7.30;;;3.25;;
43337;SDS011;28933;52.492;13.434;2022-09-06T10:37:07;7.60;;;2.80;;
43337;SDS011;28933;52.492;13.434;2022-09-06T10:39:57;11.10;;;2.90;;
43337;SDS011;28933;52.492;13.434;2022-09-06T10:42:50;3.40;;;2.60;;
43337;SDS011;28933;52.492;13.434;2022-09-06T10:58:51;4.60;;;3.20;;
43337;SDS011;28933;52.492;13.434;2022-09-06T11:01:24;5.55;;;3.40;;
43337;SDS011;28933;52.492;13.434;2022-09-06T11:04:15;5.20;;;3.33;;
43337;SDS011;28933;52.492;13.434;2022-09-06T11:06:50;5.70;;;3.08;;
43337;SDS011;28933;52.492;13.434;2022-09-06T11:09:28;5.72;;;3.42;;
43337;SDS011;28933;52.492;13.434;2022-09-06T11:15:00;7.85;;;3.13;;
43337;SDS011;28933;52.492;13.434;2022-09-06T11:20:20;5.95;;;3.15;;
43337;SDS011;28933;52.492;13.434;2022-09-06T11:25:51;5.28;;;3.53;;
43337;SDS011;28933;52.492;13.434;2022-09-06T11:28:36;8.57;;;3.70;;
43337;SDS011;28933;52.492;13.434;2022-09-06T11:31:09;5.00;;;3.22;;
43337;SDS011;28933;52.492;13.434;2022-09-06T11:33:41;5.03;;;3.47;;
43337;SDS011;28933;52.492;13.434;2022-09-06T11:37:08;4.90;;;2.88;;
43337;SDS011;28933;52.492;13.434;2022-09-06T11:39:12;6.43;;;3.10;;
43337;SDS011;28933;52.492;13.434;2022-09-06T11:41:47;4.63;;;2.92;;
43337;SDS011;28933;52.492;13.434;2022-09-06T11:44:19;4.65;;;3.08;;
43337;SDS011;28933;52.492;13.434;2022-09-06T11:48:17;3.85;;;2.85;;
43337;SDS011;28933;52.492;13.434;2022-09-06T11:55:30;6.03;;;3.25;;
43337;SDS011;28933;52.492;13.434;2022-09-06T11:58:02;4.10;;;2.88;;
43337;SDS011;28933;52.492;13.434;2022-09-06T12:00:32;5.72;;;2.78;;
43337;SDS011;28933;52.492;13.434;2022-09-06T12:02:57;4.82;;;3.15;;
43337;SDS011;28933;52.492;13.434;2022-09-06T12:05:25;5.15;;;3.05;;
43337;SDS011;28933;52.492;13.434;2022-09-06T12:08:12;4.57;;;2.88;;
43337;SDS011;28933;52.492;13.434;2022-09-06T12:11:00;6.10;;;3.47;;
43337;SDS011;28933;52.492;13.434;2022-09-06T12:15:57;4.35;;;3.20;;
43337;SDS011;28933;52.492;13.434;2022-09-06T12:21:31;5.07;;;3.00;;
43337;SDS011;28933;52.492;13.434;2022-09-06T12:23:55;5.35;;;3.33;;
43337;SDS011;28933;52.492;13.434;2022-09-06T12:29:11;4.97;;;3.17;;
43337;SDS011;28933;52.492;13.434;2022-09-06T12:31:50;5.18;;;3.60;;
43337;SDS011;28933;52.492;13.434;2022-09-06T12:34:22;5.25;;;3.42;;
43337;SDS011;28933;52.492;13.434;2022-09-06T12:36:50;7.68;;;3.25;;
43337;SDS011;28933;52.492;13.434;2022-09-06T12:39:20;4.95;;;3.10;;
43337;SDS011;28933;52.492;13.434;2022-09-06T12:41:48;7.55;;;3.88;;
43337;SDS011;28933;52.492;13.434;2022-09-06T12:44:16;4.57;;;3.25;;
43337;SDS011;28933;52.492;13.434;2022-09-06T12:46:46;5.88;;;3.40;;
43337;SDS011;28933;52.492;13.434;2022-09-06T12:49:15;4.30;;;3.15;;
43337;SDS011;28933;52.492;13.434;2022-09-06T12:51:43;4.05;;;3.20;;
43337;SDS011;28933;52.492;13.434;2022-09-06T12:54:17;5.15;;;3.05;;
43337;SDS011;28933;52.492;13.434;2022-09-06T12:56:49;7.68;;;3.60;;
43337;SDS011;28933;52.492;13.434;2022-09-06T13:02:02;6.20;;;3.40;;
43337;SDS011;28933;52.492;13.434;2022-09-06T13:07:08;4.65;;;3.38;;
43337;SDS011;28933;52.492;13.434;2022-09-06T13:09:38;4.88;;;2.97;;
43337;SDS011;28933;52.492;13.434;2022-09-06T13:12:08;3.95;;;3.05;;
43337;SDS011;28933;52.492;13.434;2022-09-06T13:14:50;4.72;;;3.50;;
43337;SDS011;28933;52.492;13.434;2022-09-06T13:17:22;5.30;;;3.17;;
43337;SDS011;28933;52.492;13.434;2022-09-06T13:19:52;4.15;;;3.33;;
43337;SDS011;28933;52.492;13.434;2022-09-06T13:25:05;5.30;;;3.00;;
43337;SDS011;28933;52.492;13.434;2022-09-06T13:27:41;5.00;;;3.30;;
43337;SDS011;28933;52.492;13.434;2022-09-06T13:30:19;4.15;;;3.00;;
43337;SDS011;28933;52.492;13.434;2022-09-06T13:32:56;4.43;;;3.20;;
43337;SDS011;28933;52.492;13.434;2022-09-06T13:35:22;4.35;;;3.15;;
43337;SDS011;28933;52.492;13.434;2022-09-06T13:40:57;6.93;;;3.67;;
43337;SDS011;28933;52.492;13.434;2022-09-06T13:43:24;6.20;;;3.42;;
43337;SDS011;28933;52.492;13.434;2022-09-06T13:46:03;12.75;;;3.95;;
43337;SDS011;28933;52.492;13.434;2022-09-06T13:48:34;5.53;;;3.60;;
43337;SDS011;28933;52.492;13.434;2022-09-06T13:51:01;6.10;;;3.45;;
43337;SDS011;28933;52.492;13.434;2022-09-06T13:53:28;4.65;;;3.83;;
43337;SDS011;28933;52.492;13.434;2022-09-06T13:55:55;4.60;;;3.55;;
43337;SDS011;28933;52.492;13.434;2022-09-06T13:58:21;6.50;;;3.20;;
43337;SDS011;28933;52.492;13.434;2022-09-06T14:00:46;6.72;;;3.92;;
43337;SDS011;28933;52.492;13.434;2022-09-06T14:03:23;6.20;;;3.63;;
43337;SDS011;28933;52.492;13.434;2022-09-06T14:05:51;6.63;;;3.63;;
43337;SDS011;28933;52.492;13.434;2022-09-06T14:08:17;5.15;;;3.45;;
43337;SDS011;28933;52.492;13.434;2022-09-06T14:10:42;4.55;;;3.40;;
43337;SDS011;28933;52.492;13.434;2022-09-06T14:13:10;5.85;;;3.97;;
43337;SDS011;28933;52.492;13.434;2022-09-06T14:15:36;5.22;;;3.58;;
43337;SDS011;28933;52.492;13.434;2022-09-06T14:18:02;8.48;;;3.55;;
43337;SDS011;28933;52.492;13.434;2022-09-06T14:20:28;5.75;;;3.75;;
43337;SDS011;28933;52.492;13.434;2022-09-06T14:22:53;4.53;;;3.33;;
43337;SDS011;28933;52.492;13.434;2022-09-06T14:25:19;5.47;;;3.67;;
43337;SDS011;28933;52.492;13.434;2022-09-06T14:27:44;5.28;;;3.35;;
43337;SDS011;28933;52.492;13.434;2022-09-06T14:30:12;9.13;;;3.75;;
43337;SDS011;28933;52.492;13.434;2022-09-06T14:32:38;6.22;;;3.85;;
43337;SDS011;28933;52.492;13.434;2022-09-06T14:35:03;4.57;;;3.42;;
43337;SDS011;28933;52.492;13.434;2022-09-06T14:37:29;4.75;;;3.78;;
43337;SDS011;28933;52.492;13.434;2022-09-06T14:39:55;3.97;;;3.17;;
43337;SDS011;28933;52.492;13.434;2022-09-06T14:42:21;5.88;;;3.20;;
43337;SDS011;28933;52.492;13.434;2022-09-06T14:44:51;5.20;;;3.22;;
43337;SDS011;28933;52.492;13.434;2022-09-06T14:47:17;6.75;;;3.50;;
43337;SDS011;28933;52.492;13.434;2022-09-06T14:49:43;5.25;;;3.40;;
43337;SDS011;28933;52.492;13.434;2022-09-06T14:52:08;5.78;;;3.65;;
43337;SDS011;28933;52.492;13.434;2022-09-06T14:54:34;6.55;;;4.28;;
43337;SDS011;28933;52.492;13.434;2022-09-06T14:57:01;7.95;;;3.53;;
43337;SDS011;28933;52.492;13.434;2022-09-06T14:59:27;5.65;;;3.60;;
43337;SDS011;28933;52.492;13.434;2022-09-06T15:01:53;5.00;;;3.40;;
43337;SDS011;28933;52.492;13.434;2022-09-06T15:04:18;6.32;;;3.78;;
43337;SDS011;28933;52.492;13.434;2022-09-06T15:06:44;7.15;;;3.90;;
43337;SDS011;28933;52.492;13.434;2022-09-06T15:09:13;5.07;;;3.45;;
43337;SDS011;28933;52.492;13.434;2022-09-06T15:11:40;5.07;;;3.53;;
43337;SDS011;28933;52.492;13.434;2022-09-06T15:14:14;5.43;;;3.28;;
43337;SDS011;28933;52.492;13.434;2022-09-06T15:16:45;7.32;;;3.33;;
43337;SDS011;28933;52.492;13.434;2022-09-06T15:19:14;4.97;;;3.80;;
43337;SDS011;28933;52.492;13.434;2022-09-06T15:21:39;8.93;;;3.90;;
43337;SDS011;28933;52.492;13.434;2022-09-06T15:24:05;5.18;;;3.25;;
43337;SDS011;28933;52.492;13.434;2022-09-06T15:26:31;5.00;;;3.80;;
43337;SDS011;28933;52.492;13.434;2022-09-06T15:28:59;6.07;;;3.90;;
43337;SDS011;28933;52.492;13.434;2022-09-06T15:31:26;4.93;;;3.78;;
43337;SDS011;28933;52.492;13.434;2022-09-06T15:33:54;9.63;;;3.65;;
43337;SDS011;28933;52.492;13.434;2022-09-06T15:36:19;5.47;;;3.47;;
43337;SDS011;28933;52.492;13.434;2022-09-06T15:38:48;5.97;;;3.75;;
43337;SDS011;28933;52.492;13.434;2022-09-06T15:41:15;4.00;;;3.40;;
43337;SDS011;28933;52.492;13.434;2022-09-06T15:43:45;4.47;;;3.58;;
43337;SDS011;28933;52.492;13.434;2022-09-06T15:46:12;6.75;;;3.10;;
43337;SDS011;28933;52.492;13.434;2022-09-06T15:48:46;4.07;;;3.55;;
43337;SDS011;28933;52.492;13.434;2022-09-06T15:51:14;6.05;;;3.28;;
43337;SDS011;28933;52.492;13.434;2022-09-06T15:53:42;5.35;;;3.50;;
43337;SDS011;28933;52.492;13.434;2022-09-06T15:56:12;7.32;;;3.70;;
43337;SDS011;28933;52.492;13.434;2022-09-06T15:58:39;8.65;;;4.07;;
43337;SDS011;28933;52.492;13.434;2022-09-06T16:01:06;8.07;;;3.50;;
43337;SDS011;28933;52.492;13.434;2022-09-06T16:03:47;5.03;;;3.75;;
43337;SDS011;28933;52.492;13.434;2022-09-06T16:06:19;6.57;;;3.42;;
43337;SDS011;28933;52.492;13.434;2022-09-06T16:08:46;4.38;;;3.50;;
43337;SDS011;28933;52.492;13.434;2022-09-06T16:11:14;5.80;;;3.20;;
43337;SDS011;28933;52.492;13.434;2022-09-06T16:13:41;4.75;;;3.22;;
43337;SDS011;28933;52.492;13.434;2022-09-06T16:16:08;5.68;;;3.47;;
43337;SDS011;28933;52.492;13.434;2022-09-06T16:18:36;4.90;;;3.17;;
43337;SDS011;28933;52.492;13.434;2022-09-06T16:21:04;7.55;;;4.10;;
43337;SDS011;28933;52.492;13.434;2022-09-06T16:23:35;4.72;;;3.42;;
43337;SDS011;28933;52.492;13.434;2022-09-06T16:26:01;6.18;;;3.65;;
43337;SDS011;28933;52.492;13.434;2022-09-06T16:28:28;10.60;;;3.85;;
43337;SDS011;28933;52.492;13.434;2022-09-06T16:30:59;5.88;;;4.07;;
43337;SDS011;28933;52.492;13.434;2022-09-06T16:33:30;5.97;;;3.30;;
43337;SDS011;28933;52.492;13.434;2022-09-06T16:36:00;5.03;;;3.78;;
43337;SDS011;28933;52.492;13.434;2022-09-06T16:38:29;5.40;;;3.47;;
43337;SDS011;28933;52.492;13.434;2022-09-06T16:40:59;5.00;;;3.55;;
43337;SDS011;28933;52.492;13.434;2022-09-06T16:43:32;4.57;;;3.47;;